sensor_id;sensor_type;location;lat;lon;timestamp;P1;durP1;ratioP1;P2;durP2;ratioP2
5971;SDS011;3012;49.944;8.454;2023-09-18T00:01:56;5.40;;;4.90;;
5971;SDS011;3012;49.944;8.454;2023-09-18T00:04:24;5.45;;;4.10;;
5971;SDS011;3012;49.944;8.454;2023-09-18T00:06:52;11.38;;;4.57;;
5971;SDS011;3012;49.944;8.454;2023-09-18T00:09:21;7.18;;;4.43;;
5971;SDS011;3012;49.944;8.454;2023-09-18T00:11:49;10.40;;;4.20;;
5971;SDS011;3012;49.944;8.454;2023-09-18T00:14:19;10.57;;;4.13;;
5971;SDS011;3012;49.944;8.454;2023-09-18T00:16:47;5.93;;;4.25;;
5971;SDS011;3012;49.944;8.454;2023-09-18T00:19:24;7.70;;;4.60;;
5971;SDS011;3012;49.944;8.454;2023-09-18T00:21:52;10.32;;;4.45;;
5971;SDS011;3012;49.944;8.454;2023-09-18T00:24:20;6.00;;;3.92;;
5971;SDS011;3012;49.944;8.454;2023-09-18T00:26:48;8.73;;;4.00;;
5971;SDS011;3012;49.944;8.454;2023-09-18T00:29:20;11.80;;;4.60;;
5971;SDS011;3012;49.944;8.454;2023-09-18T00:31:48;7.18;;;4.47;;
5971;SDS011;3012;49.944;8.454;2023-09-18T00:34:16;10.73;;;4.13;;
5971;SDS011;3012;49.944;8.454;2023-09-18T00:36:44;6.57;;;4.07;;
5971;SDS011;3012;49.944;8.454;2023-09-18T00:39:12;4.30;;;3.90;;
5971;SDS011;3012;49.944;8.454;2023-09-18T00:41:41;8.45;;;4.05;;
5971;SDS011;3012;49.944;8.454;2023-09-18T00:44:10;8.63;;;4.05;;
5971;SDS011;3012;49.944;8.454;2023-09-18T00:46:39;8.32;;;4.15;;
5971;SDS011;3012;49.944;8.454;2023-09-18T00:49:07;10.25;;;4.25;;
5971;SDS011;3012;49.944;8.454;2023-09-18T00:51:36;6.55;;;4.45;;
5971;SDS011;3012;49.944;8.454;2023-09-18T00:54:04;7.95;;;4.18;;
5971;SDS011;3012;49.944;8.454;2023-09-18T00:56:33;5.75;;;4.30;;
5971;SDS011;3012;49.944;8.454;2023-09-18T00:59:01;7.28;;;3.60;;
5971;SDS011;3012;49.944;8.454;2023-09-18T01:01:30;6.60;;;4.22;;
5971;SDS011;3012;49.944;8.454;2023-09-18T01:04:01;6.90;;;3.97;;
5971;SDS011;3012;49.944;8.454;2023-09-18T01:06:29;7.90;;;4.65;;
5971;SDS011;3012;49.944;8.454;2023-09-18T01:08:57;5.63;;;4.13;;
5971;SDS011;3012;49.944;8.454;2023-09-18T01:11:27;6.88;;;4.38;;
5971;SDS011;3012;49.944;8.454;2023-09-18T01:14:01;8.48;;;4.60;;
5971;SDS011;3012;49.944;8.454;2023-09-18T01:16:36;8.45;;;3.88;;
5971;SDS011;3012;49.944;8.454;2023-09-18T01:19:13;6.53;;;3.72;;
5971;SDS011;3012;49.944;8.454;2023-09-18T01:21:41;5.03;;;3.25;;
5971;SDS011;3012;49.944;8.454;2023-09-18T01:24:14;7.15;;;4.20;;
5971;SDS011;3012;49.944;8.454;2023-09-18T01:26:42;6.13;;;3.97;;
5971;SDS011;3012;49.944;8.454;2023-09-18T01:29:10;4.35;;;3.47;;
5971;SDS011;3012;49.944;8.454;2023-09-18T01:31:38;10.77;;;3.75;;
5971;SDS011;3012;49.944;8.454;2023-09-18T01:34:06;6.60;;;4.05;;
5971;SDS011;3012;49.944;8.454;2023-09-18T01:36:34;9.15;;;4.20;;
5971;SDS011;3012;49.944;8.454;2023-09-18T01:39:02;3.63;;;3.33;;
5971;SDS011;3012;49.944;8.454;2023-09-18T01:41:32;5.65;;;3.58;;
5971;SDS011;3012;49.944;8.454;2023-09-18T01:44:01;5.72;;;4.05;;
5971;SDS011;3012;49.944;8.454;2023-09-18T01:46:31;4.70;;;3.88;;
5971;SDS011;3012;49.944;8.454;2023-09-18T01:49:02;6.15;;;3.80;;
5971;SDS011;3012;49.944;8.454;2023-09-18T01:51:30;6.45;;;3.70;;
5971;SDS011;3012;49.944;8.454;2023-09-18T01:53:59;3.95;;;3.55;;
5971;SDS011;3012;49.944;8.454;2023-09-18T01:56:27;5.90;;;4.22;;
5971;SDS011;3012;49.944;8.454;2023-09-18T01:58:56;6.00;;;4.07;;
5971;SDS011;3012;49.944;8.454;2023-09-18T02:01:25;5.90;;;4.40;;
5971;SDS011;3012;49.944;8.454;2023-09-18T02:03:53;8.02;;;4.13;;
5971;SDS011;3012;49.944;8.454;2023-09-18T02:06:41;6.28;;;4.00;;
5971;SDS011;3012;49.944;8.454;2023-09-18T02:09:09;7.22;;;4.75;;
5971;SDS011;3012;49.944;8.454;2023-09-18T02:11:38;6.60;;;4.63;;
5971;SDS011;3012;49.944;8.454;2023-09-18T02:14:09;6.57;;;4.22;;
5971;SDS011;3012;49.944;8.454;2023-09-18T02:16:38;9.63;;;5.10;;
5971;SDS011;3012;49.944;8.454;2023-09-18T02:19:08;14.30;;;4.95;;
5971;SDS011;3012;49.944;8.454;2023-09-18T02:21:37;7.45;;;4.28;;
5971;SDS011;3012;49.944;8.454;2023-09-18T02:24:06;7.43;;;4.10;;
5971;SDS011;3012;49.944;8.454;2023-09-18T02:26:35;4.75;;;4.40;;
5971;SDS011;3012;49.944;8.454;2023-09-18T02:29:05;4.65;;;4.20;;
5971;SDS011;3012;49.944;8.454;2023-09-18T02:31:35;6.85;;;4.22;;
5971;SDS011;3012;49.944;8.454;2023-09-18T02:34:03;5.22;;;4.72;;
5971;SDS011;3012;49.944;8.454;2023-09-18T02:36:31;5.05;;;4.18;;
5971;SDS011;3012;49.944;8.454;2023-09-18T02:38:59;4.72;;;4.07;;
5971;SDS011;3012;49.944;8.454;2023-09-18T02:41:27;4.90;;;3.97;;
5971;SDS011;3012;49.944;8.454;2023-09-18T02:43:55;8.18;;;4.95;;
5971;SDS011;3012;49.944;8.454;2023-09-18T02:46:23;6.10;;;4.75;;
5971;SDS011;3012;49.944;8.454;2023-09-18T02:48:52;12.07;;;5.78;;
5971;SDS011;3012;49.944;8.454;2023-09-18T02:51:21;10.20;;;4.63;;
5971;SDS011;3012;49.944;8.454;2023-09-18T02:53:49;4.93;;;4.38;;
5971;SDS011;3012;49.944;8.454;2023-09-18T02:56:17;5.68;;;4.10;;
5971;SDS011;3012;49.944;8.454;2023-09-18T02:58:45;5.15;;;4.35;;
5971;SDS011;3012;49.944;8.454;2023-09-18T03:01:13;7.00;;;4.20;;
5971;SDS011;3012;49.944;8.454;2023-09-18T03:03:41;6.20;;;4.75;;
5971;SDS011;3012;49.944;8.454;2023-09-18T03:06:11;8.63;;;4.53;;
5971;SDS011;3012;49.944;8.454;2023-09-18T03:08:42;7.05;;;4.43;;
5971;SDS011;3012;49.944;8.454;2023-09-18T03:11:11;4.50;;;4.00;;
5971;SDS011;3012;49.944;8.454;2023-09-18T03:13:43;7.93;;;4.20;;
5971;SDS011;3012;49.944;8.454;2023-09-18T03:16:13;10.43;;;4.57;;
5971;SDS011;3012;49.944;8.454;2023-09-18T03:18:43;11.68;;;5.18;;
5971;SDS011;3012;49.944;8.454;2023-09-18T03:21:12;9.90;;;4.63;;
5971;SDS011;3012;49.944;8.454;2023-09-18T03:23:40;5.03;;;3.88;;
5971;SDS011;3012;49.944;8.454;2023-09-18T03:26:08;7.57;;;3.83;;
5971;SDS011;3012;49.944;8.454;2023-09-18T03:28:36;4.95;;;3.58;;
5971;SDS011;3012;49.944;8.454;2023-09-18T03:31:04;8.18;;;4.35;;
5971;SDS011;3012;49.944;8.454;2023-09-18T03:33:33;5.60;;;4.15;;
5971;SDS011;3012;49.944;8.454;2023-09-18T03:36:01;6.97;;;4.75;;
5971;SDS011;3012;49.944;8.454;2023-09-18T03:38:32;4.10;;;3.80;;
5971;SDS011;3012;49.944;8.454;2023-09-18T03:41:02;5.65;;;3.90;;
5971;SDS011;3012;49.944;8.454;2023-09-18T03:43:30;10.23;;;3.75;;
5971;SDS011;3012;49.944;8.454;2023-09-18T03:46:02;6.93;;;3.88;;
5971;SDS011;3012;49.944;8.454;2023-09-18T03:48:31;6.13;;;4.25;;
5971;SDS011;3012;49.944;8.454;2023-09-18T03:51:03;7.38;;;4.45;;
5971;SDS011;3012;49.944;8.454;2023-09-18T03:53:33;7.20;;;4.30;;
5971;SDS011;3012;49.944;8.454;2023-09-18T03:56:01;9.63;;;4.55;;
5971;SDS011;3012;49.944;8.454;2023-09-18T03:58:29;5.55;;;4.38;;
5971;SDS011;3012;49.944;8.454;2023-09-18T04:01:01;14.48;;;4.40;;
5971;SDS011;3012;49.944;8.454;2023-09-18T04:03:29;8.02;;;3.97;;
5971;SDS011;3012;49.944;8.454;2023-09-18T04:05:57;7.47;;;3.60;;
5971;SDS011;3012;49.944;8.454;2023-09-18T04:08:25;5.00;;;3.83;;
5971;SDS011;3012;49.944;8.454;2023-09-18T04:10:55;8.77;;;4.38;;
5971;SDS011;3012;49.944;8.454;2023-09-18T04:13:24;4.70;;;3.78;;
5971;SDS011;3012;49.944;8.454;2023-09-18T04:15:52;4.60;;;4.20;;
5971;SDS011;3012;49.944;8.454;2023-09-18T04:18:23;8.25;;;4.32;;
5971;SDS011;3012;49.944;8.454;2023-09-18T04:20:51;6.43;;;4.05;;
5971;SDS011;3012;49.944;8.454;2023-09-18T04:23:20;11.40;;;4.65;;
5971;SDS011;3012;49.944;8.454;2023-09-18T04:25:49;4.18;;;3.63;;
5971;SDS011;3012;49.944;8.454;2023-09-18T04:28:20;8.27;;;4.03;;
5971;SDS011;3012;49.944;8.454;2023-09-18T04:30:48;9.57;;;4.15;;
5971;SDS011;3012;49.944;8.454;2023-09-18T04:33:17;6.05;;;3.47;;
5971;SDS011;3012;49.944;8.454;2023-09-18T04:35:45;4.93;;;3.35;;
5971;SDS011;3012;49.944;8.454;2023-09-18T04:38:13;10.30;;;3.95;;
5971;SDS011;3012;49.944;8.454;2023-09-18T04:40:42;3.70;;;3.40;;
5971;SDS011;3012;49.944;8.454;2023-09-18T04:43:12;4.28;;;3.50;;
5971;SDS011;3012;49.944;8.454;2023-09-18T04:45:41;7.00;;;3.67;;
5971;SDS011;3012;49.944;8.454;2023-09-18T04:48:09;3.90;;;3.40;;
5971;SDS011;3012;49.944;8.454;2023-09-18T04:50:38;3.90;;;3.42;;
5971;SDS011;3012;49.944;8.454;2023-09-18T04:53:06;7.72;;;3.25;;
5971;SDS011;3012;49.944;8.454;2023-09-18T04:55:35;3.80;;;2.97;;
5971;SDS011;3012;49.944;8.454;2023-09-18T04:58:04;5.50;;;3.20;;
5971;SDS011;3012;49.944;8.454;2023-09-18T05:00:32;5.00;;;3.42;;
5971;SDS011;3012;49.944;8.454;2023-09-18T05:03:02;7.80;;;3.30;;
5971;SDS011;3012;49.944;8.454;2023-09-18T05:05:31;6.03;;;3.47;;
5971;SDS011;3012;49.944;8.454;2023-09-18T05:08:00;9.02;;;3.33;;
5971;SDS011;3012;49.944;8.454;2023-09-18T05:10:29;6.35;;;3.50;;
5971;SDS011;3012;49.944;8.454;2023-09-18T05:12:57;6.60;;;3.65;;
5971;SDS011;3012;49.944;8.454;2023-09-18T05:15:25;5.78;;;2.97;;
5971;SDS011;3012;49.944;8.454;2023-09-18T05:17:56;6.25;;;3.25;;
5971;SDS011;3012;49.944;8.454;2023-09-18T05:20:27;4.68;;;3.80;;
5971;SDS011;3012;49.944;8.454;2023-09-18T05:22:56;4.75;;;2.97;;
5971;SDS011;3012;49.944;8.454;2023-09-18T05:25:26;5.68;;;3.42;;
5971;SDS011;3012;49.944;8.454;2023-09-18T05:27:58;3.28;;;3.03;;
5971;SDS011;3012;49.944;8.454;2023-09-18T05:30:28;9.25;;;2.75;;
5971;SDS011;3012;49.944;8.454;2023-09-18T05:32:59;5.72;;;2.50;;
5971;SDS011;3012;49.944;8.454;2023-09-18T05:35:33;8.73;;;3.55;;
5971;SDS011;3012;49.944;8.454;2023-09-18T05:38:03;4.57;;;3.17;;
5971;SDS011;3012;49.944;8.454;2023-09-18T05:40:31;8.75;;;3.25;;
5971;SDS011;3012;49.944;8.454;2023-09-18T05:43:00;13.27;;;3.33;;
5971;SDS011;3012;49.944;8.454;2023-09-18T05:45:28;6.05;;;2.95;;
5971;SDS011;3012;49.944;8.454;2023-09-18T05:47:58;4.43;;;2.78;;
5971;SDS011;3012;49.944;8.454;2023-09-18T05:50:30;7.68;;;3.53;;
5971;SDS011;3012;49.944;8.454;2023-09-18T05:53:02;4.90;;;2.72;;
5971;SDS011;3012;49.944;8.454;2023-09-18T05:55:32;8.75;;;2.97;;
5971;SDS011;3012;49.944;8.454;2023-09-18T05:58:01;4.65;;;2.58;;
5971;SDS011;3012;49.944;8.454;2023-09-18T06:00:30;7.47;;;3.60;;
5971;SDS011;3012;49.944;8.454;2023-09-18T06:02:59;9.18;;;3.15;;
5971;SDS011;3012;49.944;8.454;2023-09-18T06:05:27;12.52;;;3.13;;
5971;SDS011;3012;49.944;8.454;2023-09-18T06:07:59;6.70;;;3.00;;
5971;SDS011;3012;49.944;8.454;2023-09-18T06:10:28;7.78;;;2.53;;
5971;SDS011;3012;49.944;8.454;2023-09-18T06:12:56;9.68;;;2.40;;
5971;SDS011;3012;49.944;8.454;2023-09-18T06:15:25;7.50;;;2.83;;
5971;SDS011;3012;49.944;8.454;2023-09-18T06:17:54;13.25;;;3.65;;
5971;SDS011;3012;49.944;8.454;2023-09-18T06:20:22;11.85;;;2.67;;
5971;SDS011;3012;49.944;8.454;2023-09-18T06:22:50;10.70;;;3.10;;
5971;SDS011;3012;49.944;8.454;2023-09-18T06:25:19;14.27;;;3.15;;
5971;SDS011;3012;49.944;8.454;2023-09-18T06:27:48;10.80;;;2.83;;
5971;SDS011;3012;49.944;8.454;2023-09-18T06:30:17;7.30;;;2.70;;
5971;SDS011;3012;49.944;8.454;2023-09-18T06:32:45;8.02;;;2.67;;
5971;SDS011;3012;49.944;8.454;2023-09-18T06:35:14;6.40;;;2.72;;
5971;SDS011;3012;49.944;8.454;2023-09-18T06:37:42;16.35;;;3.30;;
5971;SDS011;3012;49.944;8.454;2023-09-18T06:40:10;13.43;;;2.88;;
5971;SDS011;3012;49.944;8.454;2023-09-18T06:42:40;11.15;;;2.65;;
5971;SDS011;3012;49.944;8.454;2023-09-18T06:45:10;11.68;;;2.80;;
5971;SDS011;3012;49.944;8.454;2023-09-18T06:47:41;8.85;;;2.00;;
5971;SDS011;3012;49.944;8.454;2023-09-18T06:50:17;6.72;;;2.65;;
5971;SDS011;3012;49.944;8.454;2023-09-18T06:52:47;14.00;;;2.78;;
5971;SDS011;3012;49.944;8.454;2023-09-18T06:55:21;10.18;;;2.47;;
5971;SDS011;3012;49.944;8.454;2023-09-18T06:57:58;12.90;;;3.13;;
5971;SDS011;3012;49.944;8.454;2023-09-18T07:00:30;10.18;;;3.00;;
5971;SDS011;3012;49.944;8.454;2023-09-18T07:03:03;9.13;;;2.08;;
5971;SDS011;3012;49.944;8.454;2023-09-18T07:05:39;9.77;;;2.35;;
5971;SDS011;3012;49.944;8.454;2023-09-18T07:08:10;12.82;;;2.58;;
5971;SDS011;3012;49.944;8.454;2023-09-18T07:10:43;5.90;;;2.22;;
5971;SDS011;3012;49.944;8.454;2023-09-18T07:13:14;7.53;;;2.50;;
5971;SDS011;3012;49.944;8.454;2023-09-18T07:15:46;7.88;;;1.90;;
5971;SDS011;3012;49.944;8.454;2023-09-18T07:18:16;10.90;;;2.30;;
5971;SDS011;3012;49.944;8.454;2023-09-18T07:20:46;8.80;;;3.15;;
5971;SDS011;3012;49.944;8.454;2023-09-18T07:23:16;6.65;;;2.13;;
5971;SDS011;3012;49.944;8.454;2023-09-18T08:54:25;10.82;;;2.13;;
5971;SDS011;3012;49.944;8.454;2023-09-18T08:56:55;5.35;;;1.77;;
5971;SDS011;3012;49.944;8.454;2023-09-18T08:59:23;3.30;;;1.52;;
5971;SDS011;3012;49.944;8.454;2023-09-18T09:01:55;5.78;;;1.60;;
5971;SDS011;3012;49.944;8.454;2023-09-18T09:04:23;4.93;;;1.90;;
5971;SDS011;3012;49.944;8.454;2023-09-18T09:06:52;13.80;;;1.65;;
5971;SDS011;3012;49.944;8.454;2023-09-18T09:09:25;2.70;;;1.20;;
5971;SDS011;3012;49.944;8.454;2023-09-18T09:11:55;5.90;;;1.25;;
5971;SDS011;3012;49.944;8.454;2023-09-18T09:14:23;2.45;;;1.30;;
5971;SDS011;3012;49.944;8.454;2023-09-18T09:16:55;8.13;;;1.38;;
5971;SDS011;3012;49.944;8.454;2023-09-18T09:19:30;4.80;;;1.17;;
5971;SDS011;3012;49.944;8.454;2023-09-18T09:22:03;2.65;;;0.77;;
5971;SDS011;3012;49.944;8.454;2023-09-18T09:24:37;6.55;;;1.15;;
5971;SDS011;3012;49.944;8.454;2023-09-18T09:27:08;5.13;;;1.05;;
5971;SDS011;3012;49.944;8.454;2023-09-18T09:29:36;5.80;;;1.17;;
5971;SDS011;3012;49.944;8.454;2023-09-18T09:32:14;3.65;;;0.90;;
5971;SDS011;3012;49.944;8.454;2023-09-18T09:34:44;2.88;;;0.90;;
5971;SDS011;3012;49.944;8.454;2023-09-18T09:37:13;4.55;;;0.82;;
5971;SDS011;3012;49.944;8.454;2023-09-18T09:39:50;4.20;;;0.95;;
5971;SDS011;3012;49.944;8.454;2023-09-18T09:42:19;2.53;;;0.80;;
5971;SDS011;3012;49.944;8.454;2023-09-18T09:45:01;4.00;;;0.95;;
5971;SDS011;3012;49.944;8.454;2023-09-18T09:47:34;7.90;;;0.80;;
5971;SDS011;3012;49.944;8.454;2023-09-18T09:50:06;9.60;;;1.20;;
5971;SDS011;3012;49.944;8.454;2023-09-18T09:52:36;3.90;;;0.60;;
5971;SDS011;3012;49.944;8.454;2023-09-18T09:55:25;5.78;;;0.93;;
5971;SDS011;3012;49.944;8.454;2023-09-18T09:57:55;3.78;;;0.82;;
5971;SDS011;3012;49.944;8.454;2023-09-18T10:00:26;5.15;;;1.10;;
5971;SDS011;3012;49.944;8.454;2023-09-18T10:03:00;6.03;;;0.80;;
5971;SDS011;3012;49.944;8.454;2023-09-18T10:05:30;3.47;;;0.45;;
5971;SDS011;3012;49.944;8.454;2023-09-18T10:08:02;2.75;;;0.40;;
5971;SDS011;3012;49.944;8.454;2023-09-18T10:10:36;3.25;;;0.50;;
5971;SDS011;3012;49.944;8.454;2023-09-18T10:13:07;2.05;;;0.40;;
5971;SDS011;3012;49.944;8.454;2023-09-18T10:15:39;2.53;;;0.50;;
5971;SDS011;3012;49.944;8.454;2023-09-18T10:20:58;2.80;;;0.70;;
5971;SDS011;3012;49.944;8.454;2023-09-18T10:23:38;3.30;;;0.68;;
5971;SDS011;3012;49.944;8.454;2023-09-18T10:26:22;3.35;;;0.55;;
5971;SDS011;3012;49.944;8.454;2023-09-18T10:28:56;2.80;;;0.60;;
5971;SDS011;3012;49.944;8.454;2023-09-18T10:31:26;0.57;;;0.40;;
5971;SDS011;3012;49.944;8.454;2023-09-18T10:33:55;1.92;;;0.40;;
5971;SDS011;3012;49.944;8.454;2023-09-18T10:36:26;1.10;;;0.20;;
5971;SDS011;3012;49.944;8.454;2023-09-18T10:39:00;7.82;;;0.47;;
5971;SDS011;3012;49.944;8.454;2023-09-18T10:41:34;1.65;;;0.43;;
5971;SDS011;3012;49.944;8.454;2023-09-18T10:44:04;5.50;;;0.57;;
5971;SDS011;3012;49.944;8.454;2023-09-18T10:46:33;2.15;;;0.65;;
5971;SDS011;3012;49.944;8.454;2023-09-18T10:49:01;2.80;;;0.70;;
5971;SDS011;3012;49.944;8.454;2023-09-18T10:51:30;2.90;;;0.35;;
5971;SDS011;3012;49.944;8.454;2023-09-18T10:54:00;2.03;;;0.40;;
5971;SDS011;3012;49.944;8.454;2023-09-18T10:56:30;1.75;;;0.50;;
5971;SDS011;3012;49.944;8.454;2023-09-18T10:58:59;5.53;;;0.35;;
5971;SDS011;3012;49.944;8.454;2023-09-18T11:01:29;1.75;;;0.20;;
5971;SDS011;3012;49.944;8.454;2023-09-18T11:03:57;3.15;;;0.38;;
5971;SDS011;3012;49.944;8.454;2023-09-18T11:06:28;1.55;;;0.47;;
5971;SDS011;3012;49.944;8.454;2023-09-18T11:09:00;1.25;;;0.50;;
5971;SDS011;3012;49.944;8.454;2023-09-18T11:11:30;2.05;;;0.35;;
5971;SDS011;3012;49.944;8.454;2023-09-18T11:14:03;4.30;;;0.55;;
5971;SDS011;3012;49.944;8.454;2023-09-18T11:16:38;0.47;;;0.40;;
5971;SDS011;3012;49.944;8.454;2023-09-18T11:19:08;1.83;;;0.43;;
5971;SDS011;3012;49.944;8.454;2023-09-18T11:21:38;2.95;;;0.43;;
5971;SDS011;3012;49.944;8.454;2023-09-18T11:24:07;1.33;;;0.40;;
5971;SDS011;3012;49.944;8.454;2023-09-18T11:26:44;7.22;;;0.60;;
5971;SDS011;3012;49.944;8.454;2023-09-18T11:29:15;1.23;;;0.50;;
5971;SDS011;3012;49.944;8.454;2023-09-18T11:31:46;0.28;;;0.28;;
5971;SDS011;3012;49.944;8.454;2023-09-18T11:34:19;3.47;;;0.35;;
5971;SDS011;3012;49.944;8.454;2023-09-18T11:36:49;1.95;;;0.55;;
5971;SDS011;3012;49.944;8.454;2023-09-18T11:39:33;3.72;;;0.60;;
5971;SDS011;3012;49.944;8.454;2023-09-18T11:42:07;0.93;;;0.40;;
5971;SDS011;3012;49.944;8.454;2023-09-18T11:44:40;1.38;;;0.35;;
5971;SDS011;3012;49.944;8.454;2023-09-18T11:47:10;2.28;;;0.55;;
5971;SDS011;3012;49.944;8.454;2023-09-18T11:49:46;5.43;;;0.47;;
5971;SDS011;3012;49.944;8.454;2023-09-18T11:52:17;1.58;;;0.38;;
5971;SDS011;3012;49.944;8.454;2023-09-18T11:54:46;1.20;;;0.40;;
5971;SDS011;3012;49.944;8.454;2023-09-18T11:57:17;9.45;;;7.68;;
5971;SDS011;3012;49.944;8.454;2023-09-18T11:59:47;7.75;;;5.97;;
5971;SDS011;3012;49.944;8.454;2023-09-18T12:02:24;3.00;;;0.80;;
5971;SDS011;3012;49.944;8.454;2023-09-18T12:04:55;2.10;;;0.82;;
5971;SDS011;3012;49.944;8.454;2023-09-18T12:07:23;2.70;;;0.68;;
5971;SDS011;3012;49.944;8.454;2023-09-18T12:09:51;3.53;;;0.60;;
5971;SDS011;3012;49.944;8.454;2023-09-18T12:12:21;2.30;;;0.25;;
5971;SDS011;3012;49.944;8.454;2023-09-18T12:14:51;1.27;;;0.32;;
5971;SDS011;3012;49.944;8.454;2023-09-18T12:17:20;1.65;;;0.35;;
5971;SDS011;3012;49.944;8.454;2023-09-18T12:19:52;2.70;;;0.57;;
5971;SDS011;3012;49.944;8.454;2023-09-18T12:22:24;2.53;;;0.50;;
5971;SDS011;3012;49.944;8.454;2023-09-18T12:24:53;3.10;;;0.35;;
5971;SDS011;3012;49.944;8.454;2023-09-18T12:27:39;1.83;;;0.40;;
5971;SDS011;3012;49.944;8.454;2023-09-18T12:30:10;1.40;;;0.35;;
5971;SDS011;3012;49.944;8.454;2023-09-18T15:18:39;1.92;;;0.90;;
5971;SDS011;3012;49.944;8.454;2023-09-18T15:21:07;1.02;;;0.57;;
5971;SDS011;3012;49.944;8.454;2023-09-18T15:23:36;3.00;;;0.60;;
5971;SDS011;3012;49.944;8.454;2023-09-18T15:26:06;5.88;;;0.73;;
5971;SDS011;3012;49.944;8.454;2023-09-18T15:28:34;2.75;;;0.68;;
5971;SDS011;3012;49.944;8.454;2023-09-18T15:31:03;3.65;;;0.80;;
5971;SDS011;3012;49.944;8.454;2023-09-18T15:33:31;1.05;;;0.85;;
5971;SDS011;3012;49.944;8.454;2023-09-18T15:36:02;2.20;;;0.50;;
5971;SDS011;3012;49.944;8.454;2023-09-18T15:38:31;1.48;;;0.88;;
5971;SDS011;3012;49.944;8.454;2023-09-18T15:40:59;3.58;;;0.77;;
5971;SDS011;3012;49.944;8.454;2023-09-18T15:43:27;0.77;;;0.65;;
5971;SDS011;3012;49.944;8.454;2023-09-18T15:46:00;4.57;;;0.70;;
5971;SDS011;3012;49.944;8.454;2023-09-18T15:48:28;2.25;;;0.63;;
5971;SDS011;3012;49.944;8.454;2023-09-18T15:50:56;0.50;;;0.50;;
5971;SDS011;3012;49.944;8.454;2023-09-18T15:53:26;3.53;;;0.77;;
5971;SDS011;3012;49.944;8.454;2023-09-18T15:55:54;1.67;;;0.65;;
5971;SDS011;3012;49.944;8.454;2023-09-18T15:58:22;5.50;;;0.68;;
5971;SDS011;3012;49.944;8.454;2023-09-18T16:00:51;4.20;;;0.93;;
5971;SDS011;3012;49.944;8.454;2023-09-18T16:03:20;3.08;;;0.90;;
5971;SDS011;3012;49.944;8.454;2023-09-18T16:05:48;4.88;;;0.80;;
5971;SDS011;3012;49.944;8.454;2023-09-18T16:08:18;3.17;;;0.60;;
5971;SDS011;3012;49.944;8.454;2023-09-18T16:10:47;1.17;;;0.57;;
5971;SDS011;3012;49.944;8.454;2023-09-18T16:13:16;2.47;;;0.77;;
5971;SDS011;3012;49.944;8.454;2023-09-18T16:15:44;1.67;;;0.80;;
5971;SDS011;3012;49.944;8.454;2023-09-18T16:18:12;0.90;;;0.40;;
5971;SDS011;3012;49.944;8.454;2023-09-18T16:20:40;3.05;;;0.80;;
5971;SDS011;3012;49.944;8.454;2023-09-18T16:23:08;2.80;;;0.50;;
5971;SDS011;3012;49.944;8.454;2023-09-18T16:25:37;1.27;;;0.57;;
5971;SDS011;3012;49.944;8.454;2023-09-18T16:28:06;4.68;;;0.80;;
5971;SDS011;3012;49.944;8.454;2023-09-18T16:30:35;1.50;;;0.63;;
5971;SDS011;3012;49.944;8.454;2023-09-18T16:33:03;0.95;;;0.55;;
5971;SDS011;3012;49.944;8.454;2023-09-18T16:35:31;3.50;;;0.68;;
5971;SDS011;3012;49.944;8.454;2023-09-18T16:37:59;1.48;;;0.65;;
5971;SDS011;3012;49.944;8.454;2023-09-18T16:40:27;4.03;;;0.65;;
5971;SDS011;3012;49.944;8.454;2023-09-18T16:42:59;3.10;;;0.82;;
5971;SDS011;3012;49.944;8.454;2023-09-18T16:45:29;2.25;;;0.82;;
5971;SDS011;3012;49.944;8.454;2023-09-18T16:47:57;1.13;;;0.50;;
5971;SDS011;3012;49.944;8.454;2023-09-18T16:50:25;2.35;;;0.90;;
5971;SDS011;3012;49.944;8.454;2023-09-18T16:52:53;11.07;;;0.85;;
5971;SDS011;3012;49.944;8.454;2023-09-18T16:55:21;5.68;;;0.75;;
5971;SDS011;3012;49.944;8.454;2023-09-18T16:57:49;1.02;;;0.32;;
5971;SDS011;3012;49.944;8.454;2023-09-18T17:00:18;2.40;;;0.85;;
5971;SDS011;3012;49.944;8.454;2023-09-18T17:02:47;1.60;;;0.43;;
5971;SDS011;3012;49.944;8.454;2023-09-18T17:05:17;1.33;;;0.85;;
5971;SDS011;3012;49.944;8.454;2023-09-18T17:07:46;0.55;;;0.55;;
5971;SDS011;3012;49.944;8.454;2023-09-18T17:10:16;1.23;;;0.70;;
5971;SDS011;3012;49.944;8.454;2023-09-18T17:12:44;4.03;;;1.08;;
5971;SDS011;3012;49.944;8.454;2023-09-18T17:15:12;3.78;;;0.65;;
5971;SDS011;3012;49.944;8.454;2023-09-18T17:17:40;5.03;;;0.90;;
5971;SDS011;3012;49.944;8.454;2023-09-18T17:20:10;4.40;;;0.80;;
5971;SDS011;3012;49.944;8.454;2023-09-18T17:22:38;1.73;;;0.65;;
5971;SDS011;3012;49.944;8.454;2023-09-18T17:25:06;2.50;;;0.80;;
5971;SDS011;3012;49.944;8.454;2023-09-18T17:27:36;1.98;;;0.70;;
5971;SDS011;3012;49.944;8.454;2023-09-18T17:30:04;3.97;;;0.80;;
5971;SDS011;3012;49.944;8.454;2023-09-18T17:32:33;1.90;;;0.80;;
5971;SDS011;3012;49.944;8.454;2023-09-18T17:35:02;1.98;;;0.68;;
5971;SDS011;3012;49.944;8.454;2023-09-18T17:37:32;1.98;;;0.95;;
5971;SDS011;3012;49.944;8.454;2023-09-18T17:40:00;1.65;;;0.73;;
5971;SDS011;3012;49.944;8.454;2023-09-18T17:42:31;1.88;;;0.57;;
5971;SDS011;3012;49.944;8.454;2023-09-18T17:44:59;1.45;;;0.70;;
5971;SDS011;3012;49.944;8.454;2023-09-18T17:47:27;2.53;;;1.02;;
5971;SDS011;3012;49.944;8.454;2023-09-18T17:49:56;1.95;;;0.60;;
5971;SDS011;3012;49.944;8.454;2023-09-18T17:52:24;3.90;;;0.95;;
5971;SDS011;3012;49.944;8.454;2023-09-18T17:54:53;1.80;;;0.70;;
5971;SDS011;3012;49.944;8.454;2023-09-18T17:57:21;2.38;;;0.60;;
5971;SDS011;3012;49.944;8.454;2023-09-18T17:59:49;1.85;;;0.95;;
5971;SDS011;3012;49.944;8.454;2023-09-18T18:02:18;2.90;;;0.70;;
5971;SDS011;3012;49.944;8.454;2023-09-18T18:04:46;0.82;;;0.57;;
5971;SDS011;3012;49.944;8.454;2023-09-18T18:07:15;1.48;;;0.50;;
5971;SDS011;3012;49.944;8.454;2023-09-18T18:09:43;1.55;;;0.70;;
5971;SDS011;3012;49.944;8.454;2023-09-18T18:12:12;0.50;;;0.50;;
5971;SDS011;3012;49.944;8.454;2023-09-18T18:14:40;0.98;;;0.75;;
5971;SDS011;3012;49.944;8.454;2023-09-18T18:17:08;1.50;;;0.60;;
5971;SDS011;3012;49.944;8.454;2023-09-18T18:19:36;1.92;;;0.75;;
5971;SDS011;3012;49.944;8.454;2023-09-18T18:22:04;2.35;;;0.70;;
5971;SDS011;3012;49.944;8.454;2023-09-18T18:24:32;2.63;;;0.80;;
5971;SDS011;3012;49.944;8.454;2023-09-18T18:27:01;0.80;;;0.68;;
5971;SDS011;3012;49.944;8.454;2023-09-18T18:29:30;4.43;;;0.68;;
5971;SDS011;3012;49.944;8.454;2023-09-18T18:31:58;1.75;;;0.52;;
5971;SDS011;3012;49.944;8.454;2023-09-18T18:34:26;0.60;;;0.60;;
5971;SDS011;3012;49.944;8.454;2023-09-18T18:36:54;3.70;;;0.70;;
5971;SDS011;3012;49.944;8.454;2023-09-18T18:39:25;9.63;;;0.75;;
5971;SDS011;3012;49.944;8.454;2023-09-18T18:41:54;1.67;;;0.57;;
5971;SDS011;3012;49.944;8.454;2023-09-18T18:44:22;1.85;;;0.50;;
5971;SDS011;3012;49.944;8.454;2023-09-18T18:46:52;3.35;;;0.90;;
5971;SDS011;3012;49.944;8.454;2023-09-18T18:49:20;1.13;;;0.63;;
5971;SDS011;3012;49.944;8.454;2023-09-18T18:51:48;2.70;;;0.60;;
5971;SDS011;3012;49.944;8.454;2023-09-18T18:54:15;1.52;;;0.45;;
5971;SDS011;3012;49.944;8.454;2023-09-18T18:56:43;2.08;;;0.47;;
5971;SDS011;3012;49.944;8.454;2023-09-18T18:59:12;3.90;;;0.50;;
5971;SDS011;3012;49.944;8.454;2023-09-18T19:01:40;0.85;;;0.40;;
5971;SDS011;3012;49.944;8.454;2023-09-18T19:04:10;1.15;;;0.55;;
5971;SDS011;3012;49.944;8.454;2023-09-18T19:06:39;0.85;;;0.38;;
5971;SDS011;3012;49.944;8.454;2023-09-18T19:09:07;1.25;;;0.50;;
5971;SDS011;3012;49.944;8.454;2023-09-18T19:11:35;1.45;;;0.85;;
5971;SDS011;3012;49.944;8.454;2023-09-18T19:14:03;1.05;;;0.60;;
5971;SDS011;3012;49.944;8.454;2023-09-18T19:16:31;3.30;;;0.60;;
5971;SDS011;3012;49.944;8.454;2023-09-18T19:19:00;1.98;;;0.57;;
5971;SDS011;3012;49.944;8.454;2023-09-18T19:21:29;1.20;;;0.38;;
5971;SDS011;3012;49.944;8.454;2023-09-18T19:23:57;0.40;;;0.40;;
5971;SDS011;3012;49.944;8.454;2023-09-18T19:26:25;2.17;;;0.40;;
5971;SDS011;3012;49.944;8.454;2023-09-18T19:28:53;1.85;;;0.60;;
5971;SDS011;3012;49.944;8.454;2023-09-18T19:31:21;0.30;;;0.28;;
5971;SDS011;3012;49.944;8.454;2023-09-18T19:33:50;1.88;;;0.20;;
5971;SDS011;3012;49.944;8.454;2023-09-18T19:36:18;1.10;;;0.20;;
5971;SDS011;3012;49.944;8.454;2023-09-18T19:38:47;0.40;;;0.30;;
5971;SDS011;3012;49.944;8.454;2023-09-18T19:41:17;1.80;;;0.50;;
5971;SDS011;3012;49.944;8.454;2023-09-18T19:43:45;0.77;;;0.20;;
5971;SDS011;3012;49.944;8.454;2023-09-18T19:46:13;0.20;;;0.20;;
5971;SDS011;3012;49.944;8.454;2023-09-18T19:48:41;1.45;;;0.30;;